Time;durP1;ratioP1;P1;durP2;ratioP2;P2;SDS_P1;SDS_P2;PMS_P1;PMS_P2;Temp;Humidity;BMP_temperature;BMP_pressure;BME280_temperature;BME280_humidity;BME280_pressure;Samples;Min_cycle;Max_cycle;Signal;HPM_P1;HPM_P2
2021/11/03 00:02:24;;;;;;;23.90;16.50;;;;;;;5.78;85.40;96590.80;117200;1177;67556;-64
2021/11/03 00:04:56;;;;;;;28.00;16.10;;;;;;;5.79;85.56;96593.83;117193;1176;68279;-66
2021/11/03 00:07:29;;;;;;;23.60;15.30;;;;;;;5.79;84.87;96600.79;117285;1177;58703;-67
2021/11/03 00:09:58;;;;;;;30.30;18.40;;;;;;;5.79;84.67;96603.21;117190;1177;58729;-65
2021/11/03 00:12:31;;;;;;;28.70;17.40;;;;;;;5.76;85.93;96603.05;117229;1176;68991;-65
2021/11/03 00:15:00;;;;;;;26.10;17.40;;;;;;;5.73;85.63;96609.31;116956;1177;68412;-63
2021/11/03 00:17:30;;;;;;;32.50;19.50;;;;;;;5.67;86.72;96615.75;117197;1177;68754;-65
2021/11/03 00:19:59;;;;;;;32.90;20.80;;;;;;;5.60;86.86;96620.83;117154;1177;58728;-65
2021/11/03 00:22:30;;;;;;;30.70;20.00;;;;;;;5.51;86.81;96632.31;117328;1176;58671;-65
2021/11/03 00:24:59;;;;;;;23.40;13.70;;;;;;;5.47;86.67;96636.39;117138;1176;69722;-65
2021/11/03 00:27:29;;;;;;;27.40;16.90;;;;;;;5.52;85.72;96637.41;117044;1177;66587;-64
2021/11/03 00:29:58;;;;;;;21.80;13.90;;;;;;;5.50;85.98;96645.55;117155;1177;69043;-65
2021/11/03 00:32:29;;;;;;;28.90;17.60;;;;;;;5.44;86.16;96648.36;116879;1177;58739;-66
2021/11/03 00:34:58;;;;;;;32.20;19.50;;;;;;;5.38;86.67;96655.66;117221;1177;58748;-65
2021/11/03 00:37:29;;;;;;;27.50;18.70;;;;;;;5.31;85.77;96667.10;116889;1177;69591;-63
2021/11/03 00:39:59;;;;;;;34.90;21.10;;;;;;;5.20;86.91;96672.48;117213;1177;68141;-64
2021/11/03 00:42:29;;;;;;;;;;;;;;;5.10;87.98;96673.61;116948;1178;69637;-64
2021/11/03 00:44:59;;;;;;;34.40;20.40;;;;;;;5.03;87.99;96675.30;116913;1178;58799;-65
2021/11/03 00:47:29;;;;;;;34.30;19.40;;;;;;;4.95;88.80;96679.98;116859;1177;58773;-67
2021/11/03 00:50:02;;;;;;;38.30;20.70;;;;;;;4.89;88.55;96677.88;116899;1174;70852;-67
2021/11/03 00:52:33;;;;;;;31.60;19.60;;;;;;;4.83;88.53;96680.15;116823;1177;68447;-65
2021/11/03 00:55:04;;;;;;;35.20;20.70;;;;;;;4.78;88.79;96684.28;117065;1177;69268;-67
2021/11/03 00:57:34;;;;;;;22.40;13.80;;;;;;;4.73;88.16;96684.38;116951;1177;58828;-65
2021/11/03 01:00:07;;;;;;;27.20;16.20;;;;;;;4.78;86.56;96689.63;117331;1177;58736;-66
2021/11/03 01:02:37;;;;;;;27.50;16.30;;;;;;;4.82;86.44;96696.09;116898;1177;69551;-63
2021/11/03 01:05:11;;;;;;;29.70;16.70;;;;;;;4.83;86.28;96700.87;116919;1177;68222;-65
2021/11/03 01:07:41;;;;;;;22.70;13.30;;;;;;;4.84;86.26;96704.40;117336;1177;69232;-65
2021/11/03 01:10:11;;;;;;;;;;;;;;;4.78;86.69;96711.88;117317;1177;58732;-68
2021/11/03 01:12:41;;;;;;;16.80;12.00;;;;;;;4.74;86.71;96716.08;117288;1176;58754;-64
2021/11/03 01:15:16;;;;;;;20.70;13.60;;;;;;;4.74;86.25;96716.61;117193;1176;69666;-65
2021/11/03 01:17:55;;;;;;;26.40;17.10;;;;;;;4.70;87.41;96716.71;117292;1177;68419;-64
2021/11/03 01:20:26;;;;;;;16.00;11.00;;;;;;;4.68;87.46;96720.26;117308;1177;69052;-64
2021/11/03 01:22:57;;;;;;;17.90;11.00;;;;;;;4.72;86.01;96719.20;117285;1177;58702;-66
2021/11/03 01:25:27;;;;;;;20.10;13.70;;;;;;;4.74;85.54;96719.20;117127;1176;59170;-65
2021/11/03 01:27:58;;;;;;;23.80;14.70;;;;;;;4.74;86.09;96719.02;117229;1176;69730;-64
2021/11/03 01:30:28;;;;;;;;;;;;;;;4.75;86.12;96724.64;116908;1177;68470;-64
2021/11/03 01:33:00;;;;;;;27.50;17.10;;;;;;;4.74;86.96;96731.48;116875;1176;68461;-65
2021/11/03 01:35:31;;;;;;;30.60;18.40;;;;;;;4.70;87.79;96733.20;116915;1177;58752;-65
2021/11/03 01:38:01;;;;;;;34.90;19.50;;;;;;;4.76;90.16;96734.94;117162;1176;58717;-64
2021/11/03 01:40:37;;;;;;;40.60;21.50;;;;;;;4.85;90.35;96742.17;116918;1177;69856;-65
2021/11/03 01:43:08;;;;;;;28.60;16.50;;;;;;;4.94;90.21;96750.84;117173;1176;68353;-65
2021/11/03 01:45:38;;;;;;;23.40;15.10;;;;;;;4.97;87.92;96761.47;116892;1177;68254;-66
2021/11/03 01:48:09;;;;;;;31.20;18.70;;;;;;;5.01;87.36;96773.02;116941;1177;58745;-63
2021/11/03 01:50:49;;;;;;;34.30;21.20;;;;;;;5.05;85.95;96776.52;116922;1176;58793;-66
2021/11/03 01:53:28;;;;;;;34.00;20.90;;;;;;;5.01;85.88;96780.90;116883;1177;69972;-64
2021/11/03 01:56:06;;;;;;;28.10;17.40;;;;;;;4.74;84.93;96786.68;116893;1177;68484;-64
2021/11/03 01:58:48;;;;;;;21.90;13.10;;;;;;;4.76;84.90;96789.15;116923;1177;68571;-65
2021/11/03 02:01:19;;;;;;;20.50;12.70;;;;;;;4.77;85.34;96792.23;116849;1177;58811;-64
2021/11/03 02:03:51;;;;;;;30.50;18.30;;;;;;;4.78;85.77;96787.50;117093;1177;58707;-63
2021/11/03 02:06:24;;;;;;;29.60;17.10;;;;;;;4.81;85.58;96790.75;116780;1180;69811;-64
2021/11/03 02:08:55;;;;;;;24.20;13.80;;;;;;;4.83;85.40;96798.90;117027;1176;68240;-67
2021/11/03 02:11:27;;;;;;;19.90;14.20;;;;;;;4.86;84.99;96800.83;116951;1177;68463;-63
2021/11/03 02:14:01;;;;;;;30.10;17.20;;;;;;;4.90;85.56;96804.93;116919;1177;58732;-61
2021/11/03 02:16:35;;;;;;;28.40;15.80;;;;;;;4.94;85.50;96807.96;116889;1177;58761;-66
2021/11/03 02:19:12;;;;;;;32.30;20.40;;;;;;;4.96;85.80;96809.02;116850;1177;70562;-67
2021/11/03 02:22:09;;;;;;;28.30;18.90;;;;;;;4.98;87.26;96813.39;116911;1177;68348;-65
2021/11/03 02:24:52;;;;;;;34.80;21.30;;;;;;;5.01;87.88;96822.21;117026;1176;69124;-65
2021/11/03 02:27:24;;;;;;;37.60;20.60;;;;;;;5.04;87.85;96829.06;116887;1176;58691;-65
2021/11/03 02:29:54;;;;;;;24.40;16.50;;;;;;;5.08;87.86;96830.39;116890;1178;58726;-66
2021/11/03 02:32:29;;;;;;;24.10;14.30;;;;;;;5.13;87.73;96833.23;116946;1177;70387;-65
2021/11/03 02:34:59;;;;;;;24.70;16.50;;;;;;;5.19;87.22;96834.95;116927;1177;66961;-64
2021/11/03 02:37:34;;;;;;;24.90;15.70;;;;;;;5.25;86.78;96844.43;117119;1177;69292;-65
2021/11/03 02:40:27;;;;;;;22.20;14.60;;;;;;;5.31;86.64;96847.52;117103;1177;58783;-64
2021/11/03 02:43:30;;;;;;;34.60;20.70;;;;;;;5.37;86.28;96850.10;117228;1177;58711;-63
2021/11/03 02:46:02;;;;;;;29.30;18.80;;;;;;;5.42;84.90;96845.15;116982;1177;69815;-66
2021/11/03 02:48:35;;;;;;;28.40;17.90;;;;;;;5.41;84.97;96851.05;117060;1176;68294;-65
2021/11/03 02:51:19;;;;;;;21.50;14.10;;;;;;;5.41;85.09;96855.92;116784;1177;69233;-67
2021/11/03 02:54:04;;;;;;;23.70;16.00;;;;;;;5.41;84.82;96858.84;117239;1177;58732;-65
2021/11/03 02:56:42;;;;;;;19.60;13.40;;;;;;;5.42;85.25;96857.60;116936;1174;58754;-65
2021/11/03 02:59:16;;;;;;;22.60;13.30;;;;;;;5.43;85.13;96858.72;117166;1176;70370;-65
2021/11/03 03:01:53;;;;;;;19.50;13.00;;;;;;;5.45;85.49;96861.38;116977;1177;67503;-65
2021/11/03 03:04:25;;;;;;;21.20;13.50;;;;;;;5.47;84.17;96855.89;116938;1177;69227;-65
2021/11/03 03:06:56;;;;;;;20.80;13.50;;;;;;;5.51;84.14;96857.18;116836;1178;59214;-63
2021/11/03 03:09:28;;;;;;;20.60;13.60;;;;;;;5.55;83.85;96860.09;116900;1177;58671;-66
2021/11/03 03:12:03;;;;;;;18.90;12.10;;;;;;;5.61;83.36;96863.17;117065;1177;70501;-68
2021/11/03 03:14:39;;;;;;;23.80;14.90;;;;;;;5.65;83.59;96868.11;117230;1177;67896;-64
2021/11/03 03:17:13;;;;;;;26.10;15.70;;;;;;;5.67;83.69;96873.49;116860;1177;69053;-65
2021/11/03 03:19:45;;;;;;;20.20;12.40;;;;;;;5.69;83.65;96879.79;117080;1177;58751;-65
2021/11/03 03:22:17;;;;;;;19.90;13.50;;;;;;;5.71;83.60;96884.14;116883;1177;58748;-64
2021/11/03 03:24:53;;;;;;;22.10;14.70;;;;;;;5.72;83.50;96888.90;117179;1176;69851;-65
2021/11/03 03:27:25;;;;;;;19.50;13.50;;;;;;;5.73;83.72;96890.91;116894;1177;68421;-65
2021/11/03 03:29:56;;;;;;;28.40;18.40;;;;;;;5.74;83.84;96896.40;116795;1177;68526;-65
2021/11/03 03:32:27;;;;;;;;;;;;;;;5.75;85.26;96903.78;117157;1176;58716;-64
2021/11/03 03:34:56;;;;;;;;;;;;;;;5.74;85.58;96902.12;116813;1177;58739;-64
2021/11/03 03:37:27;;;;;;;24.80;16.40;;;;;;;5.74;84.75;96903.83;116759;1176;69351;-65
2021/11/03 03:39:58;;;;;;;23.90;15.80;;;;;;;5.76;85.51;96904.96;117135;1177;67638;-65
2021/11/03 03:42:28;;;;;;;;;;;;;;;5.76;84.89;96910.44;116847;1177;68423;-66
2021/11/03 03:44:58;;;;;;;22.50;14.50;;;;;;;5.77;86.10;96915.91;116763;1177;58806;-64
2021/11/03 03:47:28;;;;;;;16.50;12.10;;;;;;;5.79;85.12;96916.34;116874;1177;58688;-67
2021/11/03 03:49:59;;;;;;;30.10;19.50;;;;;;;5.81;84.58;96916.36;117105;1177;69840;-64
2021/11/03 03:52:29;;;;;;;25.40;16.60;;;;;;;5.83;85.27;96919.70;116975;1177;67436;-65
2021/11/03 03:54:59;;;;;;;21.00;13.20;;;;;;;5.84;85.18;96922.39;117261;1177;69068;-63
2021/11/03 03:57:30;;;;;;;19.80;11.70;;;;;;;5.86;84.44;96935.23;116913;1177;58745;-65
2021/11/03 03:59:59;;;;;;;15.00;9.50;;;;;;;5.89;84.13;96943.23;116891;1177;58755;-67
2021/11/03 04:02:31;;;;;;;21.30;14.60;;;;;;;5.91;84.00;96947.23;117290;1177;70412;-65
2021/11/03 04:05:01;;;;;;;18.40;13.30;;;;;;;5.92;83.86;96954.14;117164;1177;68265;-65
2021/11/03 04:07:31;;;;;;;19.50;14.80;;;;;;;5.94;83.86;96953.33;117138;1177;68306;-65
2021/11/03 04:10:05;;;;;;;30.30;20.50;;;;;;;5.95;84.57;96959.63;117089;1173;58742;-67
2021/11/03 04:12:34;;;;;;;31.30;20.60;;;;;;;5.95;86.41;96966.89;116758;1180;58796;-65
2021/11/03 04:15:06;;;;;;;29.50;18.10;;;;;;;5.94;86.77;96974.38;116894;1177;68804;-66
2021/11/03 04:17:36;;;;;;;19.60;12.50;;;;;;;5.94;85.84;96970.26;117177;1176;68352;-66
2021/11/03 04:20:09;;;;;;;20.30;13.10;;;;;;;5.95;85.32;96972.61;117184;1177;68278;-66
2021/11/03 04:22:41;;;;;;;21.10;13.50;;;;;;;5.96;84.96;96975.35;117118;1176;58735;-64
2021/11/03 04:25:13;;;;;;;10.70;7.80;;;;;;;5.98;84.38;96976.05;117054;1177;58783;-64
2021/11/03 04:27:43;;;;;;;18.70;11.10;;;;;;;6.01;83.14;96981.06;117192;1177;70441;-65
2021/11/03 04:30:16;;;;;;;34.80;21.10;;;;;;;6.04;83.22;96982.63;117354;1177;68518;-64
2021/11/03 04:32:46;;;;;;;30.60;19.60;;;;;;;6.01;87.12;96993.85;117261;1176;69277;-66
2021/11/03 04:35:16;;;;;;;;;;;;;;;6.00;87.06;96991.17;117059;1177;58755;-66
2021/11/03 04:37:46;;;;;;;34.80;20.30;;;;;;;5.99;87.45;96990.88;117289;1176;58739;-65
2021/11/03 04:40:19;;;;;;;19.90;12.60;;;;;;;5.99;86.87;96992.93;117202;1177;69812;-64
2021/11/03 04:42:48;;;;;;;21.00;11.70;;;;;;;6.02;85.14;96992.96;117231;1173;68406;-65
2021/11/03 04:45:21;;;;;;;22.10;14.20;;;;;;;6.04;84.49;97001.45;117222;1176;68456;-66
2021/11/03 04:47:51;;;;;;;23.70;16.00;;;;;;;6.06;83.86;97006.54;117304;1176;58721;-65
2021/11/03 04:50:23;;;;;;;;;;;;;;;6.08;83.68;97006.60;117104;1177;58713;-65
2021/11/03 04:52:53;;;;;;;22.90;14.60;;;;;;;6.08;83.60;97010.19;117292;1176;70412;-65
2021/11/03 04:55:24;;;;;;;23.70;14.60;;;;;;;6.07;84.22;97011.48;117223;1177;67640;-64
2021/11/03 04:57:53;;;;;;;22.70;15.20;;;;;;;6.05;83.82;97010.38;116901;1177;68283;-65
2021/11/03 05:00:29;;;;;;;21.10;14.60;;;;;;;6.05;83.81;97020.45;117261;1177;58745;-64
2021/11/03 05:03:00;;;;;;;25.80;16.00;;;;;;;6.05;84.10;97026.67;117040;1176;58742;-64
2021/11/03 05:05:30;;;;;;;17.20;11.20;;;;;;;6.05;84.25;97022.53;117170;1177;69878;-65
2021/11/03 05:08:00;;;;;;;23.20;16.00;;;;;;;6.05;83.62;97024.41;116821;1177;67779;-64
2021/11/03 05:10:30;;;;;;;23.40;14.70;;;;;;;6.05;83.58;97030.31;116878;1177;68594;-64
2021/11/03 05:12:59;;;;;;;22.80;16.20;;;;;;;6.04;83.55;97031.89;116840;1177;58735;-63
2021/11/03 05:15:30;;;;;;;29.10;20.30;;;;;;;6.03;84.84;97033.19;116865;1177;58754;-62
2021/11/03 05:17:59;;;;;;;35.50;22.80;;;;;;;6.01;85.46;97034.70;116881;1177;69542;-64
2021/11/03 05:20:29;;;;;;;31.50;20.90;;;;;;;5.96;86.90;97041.73;116848;1177;67677;-67
2021/11/03 05:22:59;;;;;;;40.00;23.90;;;;;;;5.92;87.58;97046.66;117112;1177;69315;-65
2021/11/03 05:25:29;;;;;;;35.70;22.40;;;;;;;5.89;87.70;97041.28;117143;1177;58701;-65
2021/11/03 05:27:59;;;;;;;37.80;23.20;;;;;;;5.88;87.88;97034.59;117268;1174;58712;-65
2021/11/03 05:30:29;;;;;;;34.00;22.00;;;;;;;5.89;88.14;97036.63;116857;1177;70480;-67
2021/11/03 05:32:59;;;;;;;26.30;15.10;;;;;;;5.92;87.60;97047.16;116878;1177;67637;-65
2021/11/03 05:35:31;;;;;;;27.00;16.40;;;;;;;5.96;86.43;97051.95;117070;1176;69917;-66
2021/11/03 05:38:01;;;;;;;26.80;18.70;;;;;;;6.01;86.48;97058.77;117157;1176;58713;-63
2021/11/03 05:40:30;;;;;;;21.90;14.20;;;;;;;6.05;87.13;97060.42;117269;1177;58755;-65
2021/11/03 05:42:59;;;;;;;26.10;16.20;;;;;;;6.08;85.50;97059.16;117164;1177;69816;-65
2021/11/03 05:45:29;;;;;;;26.90;18.20;;;;;;;6.12;84.88;97063.27;117235;1176;67786;-64
2021/11/03 05:47:58;;;;;;;26.10;16.90;;;;;;;6.16;84.97;97071.70;117274;1176;69342;-63
2021/11/03 05:50:32;;;;;;;22.80;15.20;;;;;;;6.21;84.87;97078.17;117224;1177;58733;-64
2021/11/03 05:53:03;;;;;;;21.90;14.20;;;;;;;6.26;84.60;97080.80;116888;1177;58701;-64
2021/11/03 05:55:33;;;;;;;20.30;13.70;;;;;;;6.30;84.31;97078.12;117241;1177;70660;-65
2021/11/03 05:58:03;;;;;;;26.20;17.20;;;;;;;6.35;84.12;97083.86;117087;1176;67636;-65
2021/11/03 06:00:34;;;;;;;;;;;;;;;6.40;84.48;97086.15;116963;1177;68505;-65
2021/11/03 06:03:04;;;;;;;31.20;19.70;;;;;;;6.43;85.06;97091.51;117051;1176;58707;-64
2021/11/03 06:05:34;;;;;;;25.30;16.30;;;;;;;6.45;85.63;97095.70;117127;1177;58700;-63
2021/11/03 06:08:07;;;;;;;21.60;12.80;;;;;;;6.49;84.82;97104.83;117089;1177;69556;-64
2021/11/03 06:10:43;;;;;;;23.00;15.70;;;;;;;6.54;84.61;97108.13;117248;1177;68528;-64
2021/11/03 06:13:17;;;;;;;25.20;15.30;;;;;;;6.60;84.92;97111.41;116956;1177;69291;-67
2021/11/03 06:15:47;;;;;;;19.20;12.20;;;;;;;6.67;84.29;97118.09;117221;1176;59561;-65
2021/11/03 06:18:16;;;;;;;21.50;13.80;;;;;;;6.74;83.87;97123.52;117270;1176;59574;-64
2021/11/03 06:20:46;;;;;;;25.20;17.70;;;;;;;6.82;83.23;97129.11;117137;1169;71405;-65
2021/11/03 06:23:15;;;;;;;36.20;20.90;;;;;;;6.87;83.12;97128.59;117279;1177;68615;-65
2021/11/03 06:25:44;;;;;;;38.10;23.10;;;;;;;6.96;83.23;97132.73;117045;1177;68478;-64
2021/11/03 06:28:14;;;;;;;38.40;24.80;;;;;;;7.09;84.10;97133.27;117220;1176;59568;-64
2021/11/03 06:30:43;;;;;;;30.30;18.00;;;;;;;7.29;84.51;97135.52;116903;1177;59503;-64
2021/11/03 06:33:14;;;;;;;45.50;27.50;;;;;;;7.59;83.16;97138.55;117254;1176;71399;-64
2021/11/03 06:35:45;;;;;;;36.50;22.80;;;;;;;7.96;82.74;97147.23;116805;1177;68409;-64
2021/11/03 06:38:15;;;;;;;23.70;15.60;;;;;;;8.34;82.00;97148.17;116826;1177;69991;-64
2021/11/03 06:40:45;;;;;;;23.80;16.70;;;;;;;8.79;81.12;97147.05;117007;1177;59567;-65
2021/11/03 06:43:15;;;;;;;31.70;20.90;;;;;;;9.28;81.39;97147.90;117172;1176;59558;-64
2021/11/03 06:45:44;;;;;;;32.00;22.50;;;;;;;9.77;79.01;97146.90;117135;1176;72036;-65
2021/11/03 06:48:13;;;;;;;26.60;17.90;;;;;;;10.21;75.84;97151.70;117072;1177;68453;-65
2021/11/03 06:50:45;;;;;;;29.60;19.90;;;;;;;10.71;76.02;97166.13;117237;1176;69929;-64
2021/11/03 06:53:16;;;;;;;30.80;21.90;;;;;;;11.17;72.08;97171.80;117276;1177;59516;-65
2021/11/03 06:55:46;;;;;;;28.60;22.10;;;;;;;11.62;72.57;97173.81;117186;1177;59558;-66
2021/11/03 06:58:18;;;;;;;34.00;26.10;;;;;;;12.01;70.42;97180.05;117156;1177;71584;-65
2021/11/03 07:00:49;;;;;;;23.60;18.20;;;;;;;12.19;67.00;97180.73;117128;1176;68883;-65
2021/11/03 07:03:22;;;;;;;23.30;17.20;;;;;;;12.64;68.62;97183.77;117220;1177;69908;-65
2021/11/03 07:05:55;;;;;;;24.20;16.90;;;;;;;13.11;67.63;97181.82;117093;1177;59561;-65
2021/11/03 07:08:25;;;;;;;19.30;16.20;;;;;;;13.60;68.15;97178.25;117275;1175;59937;-66
2021/11/03 07:10:58;;;;;;;17.20;13.50;;;;;;;14.11;66.52;97178.36;117091;1177;71390;-65
2021/11/03 07:13:29;;;;;;;16.60;11.70;;;;;;;14.64;66.59;97183.70;117324;1175;68124;-64
2021/11/03 07:15:58;;;;;;;23.70;18.90;;;;;;;15.03;60.17;97188.82;117189;1176;69421;-65
2021/11/03 07:18:28;;;;;;;19.60;15.60;;;;;;;14.62;57.53;97195.84;117162;1177;59565;-64
2021/11/03 07:20:58;;;;;;;17.40;15.20;;;;;;;14.99;56.43;97204.29;116960;1176;59588;-60
2021/11/03 07:23:27;;;;;;;16.90;14.40;;;;;;;14.63;53.09;97207.54;117226;1175;70695;-73
2021/11/03 07:25:56;;;;;;;21.20;17.60;;;;;;;14.92;53.57;97209.90;117121;1176;67698;-68
2021/11/03 07:28:25;;;;;;;19.90;16.60;;;;;;;14.62;53.50;97209.32;117195;1175;69344;-65
2021/11/03 07:30:54;;;;;;;16.20;11.80;;;;;;;15.01;53.18;97204.16;117257;1177;59468;-66
2021/11/03 07:33:24;;;;;;;12.30;10.40;;;;;;;15.38;52.65;97199.77;117196;1176;59540;-64
2021/11/03 07:35:53;;;;;;;14.80;13.00;;;;;;;15.86;51.14;97196.57;117206;1177;70687;-65
2021/11/03 07:38:23;;;;;;;10.10;8.20;;;;;;;16.39;50.73;97201.09;117314;1175;67918;-69
2021/11/03 07:40:55;;;;;;;12.00;9.70;;;;;;;16.93;50.04;97210.82;117109;1176;69333;-66
2021/11/03 07:43:30;;;;;;;13.30;11.00;;;;;;;17.24;46.48;97206.77;117075;1177;59577;-67
2021/11/03 07:46:02;;;;;;;10.40;8.80;;;;;;;17.60;46.75;97216.43;117319;1176;59513;-67
2021/11/03 07:48:31;;;;;;;10.80;8.40;;;;;;;18.01;45.61;97217.44;117229;1176;71538;-66
2021/11/03 07:51:05;;;;;;;13.70;11.10;;;;;;;18.45;46.09;97222.58;117322;1175;66773;-66
2021/11/03 07:53:35;;;;;;;13.90;11.40;;;;;;;18.71;44.23;97224.23;117120;1177;69305;-67
2021/11/03 07:56:14;;;;;;;11.00;9.50;;;;;;;19.02;43.31;97227.73;117213;1176;59602;-66
2021/11/03 07:58:43;;;;;;;9.60;8.20;;;;;;;19.54;44.15;97227.89;117106;1177;59526;-66
2021/11/03 08:01:13;;;;;;;10.00;8.60;;;;;;;20.08;43.63;97231.05;117223;1177;70627;-66
2021/11/03 08:03:42;;;;;;;8.60;6.80;;;;;;;20.60;42.43;97237.02;117256;1175;68364;-67
2021/11/03 08:06:12;;;;;;;15.10;11.20;;;;;;;21.00;39.68;97240.73;117059;1176;69840;-67
2021/11/03 08:08:46;;;;;;;12.10;9.60;;;;;;;20.60;35.47;97235.58;117144;1175;59622;-66
2021/11/03 08:11:17;;;;;;;9.70;8.30;;;;;;;20.62;36.24;97238.34;117110;1177;59481;-67
2021/11/03 08:13:46;;;;;;;9.80;7.80;;;;;;;20.87;36.82;97237.83;117133;1177;71465;-65
2021/11/03 08:16:16;;;;;;;11.60;10.00;;;;;;;21.18;35.97;97235.56;117195;1175;67638;-67
2021/11/03 08:18:46;;;;;;;10.20;8.20;;;;;;;21.26;35.72;97235.80;117238;1176;68610;-62
2021/11/03 08:21:16;;;;;;;11.30;8.10;;;;;;;20.86;36.26;97229.58;117144;1175;59529;-65
2021/11/03 08:23:45;;;;;;;;;;;;;;;21.50;35.70;97226.06;117349;1175;59491;-67
2021/11/03 08:26:14;;;;;;;11.00;8.30;;;;;;;21.93;35.54;97224.29;117171;1176;70779;-67
2021/11/03 08:28:43;;;;;;;11.30;9.60;;;;;;;22.18;34.74;97224.38;117163;1171;67671;-68
2021/11/03 08:31:14;;;;;;;8.70;7.60;;;;;;;22.11;33.32;97222.03;117309;1177;68521;-67
2021/11/03 08:33:46;;;;;;;11.90;10.60;;;;;;;22.58;33.97;97225.77;117281;1177;59534;-65
2021/11/03 08:36:17;;;;;;;10.40;8.30;;;;;;;23.02;34.38;97222.17;117271;1176;59551;-68
2021/11/03 08:38:55;;;;;;;11.80;9.70;;;;;;;23.11;31.22;97221.59;117349;1177;70592;-67
2021/11/03 08:41:27;;;;;;;10.90;9.50;;;;;;;22.62;31.75;97220.04;117233;1175;68405;-60
2021/11/03 08:43:59;;;;;;;11.50;9.50;;;;;;;22.44;33.06;97217.46;117265;1176;69280;-66
2021/11/03 08:46:29;;;;;;;10.70;8.20;;;;;;;22.44;33.37;97220.45;117323;1176;59593;-66
2021/11/03 08:49:00;;;;;;;12.80;10.30;;;;;;;22.60;32.96;97227.98;117404;1175;59532;-68
2021/11/03 08:51:33;;;;;;;9.40;7.70;;;;;;;22.56;33.71;97228.67;117175;1177;72140;-66
2021/11/03 08:54:04;;;;;;;13.30;10.50;;;;;;;23.04;32.83;97230.71;117324;1175;68982;-63
2021/11/03 08:56:39;;;;;;;10.00;8.20;;;;;;;22.71;32.34;97232.45;116861;1177;69370;-65
2021/11/03 08:59:10;;;;;;;12.40;10.10;;;;;;;22.48;32.23;97235.73;117276;1175;59539;-62
2021/11/03 09:01:40;;;;;;;11.00;8.50;;;;;;;22.22;32.70;97233.91;117321;1175;59522;-61
2021/11/03 09:04:09;;;;;;;10.60;8.30;;;;;;;22.83;31.36;97230.48;117327;1175;71612;-61
2021/11/03 09:06:39;;;;;;;10.60;7.90;;;;;;;23.11;30.48;97230.81;117296;1177;68486;-61
2021/11/03 09:09:08;;;;;;;;;;;;;;;23.27;29.91;97231.27;117244;1175;68524;-61
2021/11/03 09:11:37;;;;;;;10.30;8.50;;;;;;;23.51;30.06;97233.77;117042;1176;59513;-62
2021/11/03 09:14:06;;;;;;;8.40;7.00;;;;;;;23.76;29.08;97238.67;117329;1177;59481;-61
2021/11/03 09:16:36;;;;;;;10.20;7.50;;;;;;;23.87;29.36;97240.85;117284;1176;70748;-63
2021/11/03 09:19:05;;;;;;;9.80;8.20;;;;;;;24.05;29.00;97245.88;117275;1177;68517;-59
2021/11/03 09:21:34;;;;;;;8.70;6.50;;;;;;;24.12;29.52;97243.26;117308;1175;68476;-62
2021/11/03 09:24:04;;;;;;;9.00;6.80;;;;;;;24.53;28.75;97238.34;117328;1175;59565;-64
2021/11/03 09:26:33;;;;;;;10.30;7.90;;;;;;;24.87;28.35;97239.16;117344;1174;59497;-62
2021/11/03 09:29:04;;;;;;;8.90;7.20;;;;;;;24.95;27.23;97241.63;117369;1176;71305;-61
2021/11/03 09:31:34;;;;;;;7.70;5.90;;;;;;;24.57;27.58;97240.66;117317;1176;68501;-62
2021/11/03 09:34:03;;;;;;;7.80;6.80;;;;;;;24.69;27.58;97241.39;117271;1176;69922;-62
2021/11/03 09:36:33;;;;;;;8.40;6.60;;;;;;;24.31;27.29;97240.44;117285;1176;59568;-62
2021/11/03 09:39:03;;;;;;;9.30;7.60;;;;;;;24.23;27.52;97235.89;117308;1176;59501;-62
2021/11/03 09:41:38;;;;;;;;;;;;;;;23.35;28.87;97236.59;117320;1177;71434;-62
2021/11/03 09:44:24;;;;;;;7.20;5.80;;;;;;;23.60;28.29;97233.60;117139;1177;69108;-61
2021/11/03 09:47:20;;;;;;;7.70;5.40;;;;;;;23.92;27.85;97235.89;116958;1177;67417;-63
2021/11/03 09:49:58;;;;;;;6.50;5.30;;;;;;;23.89;26.73;97235.71;117318;1175;59544;-61
2021/11/03 09:52:38;;;;;;;6.70;5.20;;;;;;;23.36;27.76;97224.75;117337;1176;59532;-63
2021/11/03 09:55:13;;;;;;;7.30;5.90;;;;;;;23.34;27.16;97215.44;117255;1176;70671;-62
2021/11/03 09:57:48;;;;;;;7.60;6.30;;;;;;;23.36;27.68;97212.25;117287;1175;67894;-62
2021/11/03 10:00:43;;;;;;;6.60;5.50;;;;;;;23.32;27.42;97208.44;117241;1176;69344;-62
2021/11/03 10:03:28;;;;;;;6.00;4.60;;;;;;;23.43;26.63;97210.70;117069;1177;59592;-61
2021/11/03 10:06:23;;;;;;;7.00;5.60;;;;;;;23.95;27.31;97214.05;117067;1177;59583;-62
2021/11/03 10:08:54;;;;;;;6.10;4.70;;;;;;;24.65;26.47;97209.47;116990;1177;70485;-60
2021/11/03 10:11:29;;;;;;;6.80;5.80;;;;;;;25.12;26.09;97207.73;116882;1177;68449;-61
2021/11/03 10:14:01;;;;;;;5.70;4.50;;;;;;;25.40;25.02;97210.60;117168;1177;69452;-62
2021/11/03 10:16:43;;;;;;;7.10;5.70;;;;;;;25.62;25.16;97210.45;117245;1177;59541;-61
2021/11/03 10:19:15;;;;;;;6.00;4.40;;;;;;;23.75;25.87;97207.57;116939;1177;59519;-61
2021/11/03 10:21:57;;;;;;;6.00;4.50;;;;;;;24.52;26.27;97208.89;117125;1176;71450;-61
2021/11/03 10:24:32;;;;;;;4.90;3.90;;;;;;;24.37;25.39;97204.16;117146;1177;67833;-62
2021/11/03 10:27:08;;;;;;;4.60;4.10;;;;;;;24.98;24.67;97207.21;116899;1178;69743;-63
2021/11/03 10:29:53;;;;;;;6.70;5.30;;;;;;;24.23;24.72;97205.50;117263;1177;59519;-61
2021/11/03 10:32:35;;;;;;;6.80;5.40;;;;;;;23.11;26.03;97202.02;116969;1177;59558;-61
2021/11/03 10:35:15;;;;;;;6.00;4.10;;;;;;;21.81;27.94;97198.35;117220;1176;71466;-60
2021/11/03 10:37:47;;;;;;;5.80;4.90;;;;;;;21.51;28.66;97202.28;117153;1176;67626;-60
2021/11/03 10:40:22;;;;;;;7.10;4.90;;;;;;;21.84;28.30;97199.54;117145;1177;68942;-62
2021/11/03 10:43:01;;;;;;;5.90;4.90;;;;;;;21.88;28.16;97196.05;116897;1177;59539;-61
2021/11/03 10:45:35;;;;;;;5.60;4.60;;;;;;;22.39;28.20;97197.23;117146;1177;59597;-61
2021/11/03 10:48:07;;;;;;;5.10;3.40;;;;;;;22.81;27.82;97199.59;117213;1177;71392;-61
2021/11/03 10:50:57;;;;;;;5.40;3.90;;;;;;;23.35;26.90;97194.85;117159;1177;68574;-60
2021/11/03 10:53:35;;;;;;;5.70;4.80;;;;;;;24.10;25.89;97196.56;117183;1177;68964;-61
2021/11/03 10:56:28;;;;;;;5.30;4.10;;;;;;;24.85;24.68;97196.14;117110;1176;59554;-61
2021/11/03 10:59:00;;;;;;;5.80;4.30;;;;;;;25.23;24.09;97194.34;117212;1176;59494;-61
2021/11/03 11:01:38;;;;;;;5.70;4.60;;;;;;;25.68;23.72;97189.31;117266;1177;70633;-61
2021/11/03 11:04:16;;;;;;;5.30;4.40;;;;;;;26.23;22.97;97193.77;117170;1176;67470;-60
2021/11/03 11:06:56;;;;;;;6.60;4.90;;;;;;;26.02;22.75;97200.43;117073;1174;69121;-59
2021/11/03 11:09:38;;;;;;;6.80;5.10;;;;;;;25.59;22.98;97197.11;117118;1177;59568;-60
2021/11/03 11:12:16;;;;;;;6.50;5.00;;;;;;;24.20;24.48;97194.98;117278;1177;59532;-63
2021/11/03 11:14:46;;;;;;;5.60;4.30;;;;;;;25.07;24.02;97191.14;117213;1176;71341;-61
2021/11/03 11:17:22;;;;;;;5.40;4.20;;;;;;;26.13;23.03;97189.53;117311;1175;68972;-62
2021/11/03 11:20:16;;;;;;;5.20;4.40;;;;;;;26.51;22.00;97188.81;117246;1175;70043;-63
2021/11/03 11:23:15;;;;;;;5.60;4.20;;;;;;;25.89;22.16;97188.59;117263;1175;59507;-60
2021/11/03 11:25:59;;;;;;;4.90;3.40;;;;;;;25.68;22.33;97187.05;117251;1176;59612;-61
2021/11/03 11:28:39;;;;;;;5.60;4.50;;;;;;;26.95;21.28;97190.48;117253;1175;71343;-61
2021/11/03 11:31:19;;;;;;;6.60;4.90;;;;;;;27.31;20.69;97189.87;117124;1176;67019;-61
2021/11/03 11:34:27;;;;;;;5.10;3.40;;;;;;;25.39;22.63;97189.15;117194;1177;67927;-62
2021/11/03 11:36:59;;;;;;;4.50;3.50;;;;;;;25.40;22.39;97196.52;117272;1177;59535;-61
2021/11/03 11:39:52;;;;;;;4.10;3.30;;;;;;;24.35;23.72;97196.16;117248;1175;59615;-62
2021/11/03 11:42:24;;;;;;;4.30;3.40;;;;;;;25.02;22.84;97194.64;117266;1175;70667;-60
2021/11/03 11:45:11;;;;;;;5.90;4.20;;;;;;;24.59;22.77;97193.63;117314;1175;67379;-62
2021/11/03 11:47:44;;;;;;;5.50;3.90;;;;;;;23.37;24.55;97189.47;117295;1177;67789;-63
2021/11/03 11:50:21;;;;;;;4.80;4.30;;;;;;;24.71;23.31;97192.59;117289;1175;59526;-60